BAW301 LFPG-EGLL
Flight info
| Callsign | BAW301 |
|---|---|
| Flight time | 0h 41m |
| Altitude | 24000 |
| Route | OPALE DCT KESAX DCT DIMAL DCT ALESO |
| Aircraft | A20N/M-SDE2E3FGHIRWXY/LB1 |
Departure
| Time | 2026-05-08 20:12 |
|---|---|
| Airport | Charles de Gaulle International Airport (LFPG) |
Arrival
| Time | 2026-05-08 20:54 |
|---|---|
| Airport | London Heathrow Airport (EGLL) |
| Time | Latitude | Longitude | Altitude | Speed | Heading |
|---|---|---|---|---|---|
| 2026-05-08 19:36 | 49.00206 | 2.56587 | 361 ft | 0 kts | 17° |
| 2026-05-08 19:52 | 49.00200 | 2.56584 | 360 ft | 2 kts | 17° |
| 2026-05-08 19:52 | 49.00185 | 2.56577 | 354 ft | 2 kts | 17° |
| 2026-05-08 19:52 | 49.00171 | 2.56570 | 356 ft | 2 kts | 18° |
| 2026-05-08 19:52 | 49.00155 | 2.56562 | 362 ft | 3 kts | 13° |
| 2026-05-08 19:53 | 49.00137 | 2.56558 | 354 ft | 2 kts | 356° |
| 2026-05-08 19:53 | 49.00120 | 2.56563 | 363 ft | 2 kts | 320° |
| 2026-05-08 19:53 | 49.00114 | 2.56578 | 360 ft | 0 kts | 260° |
| 2026-05-08 19:56 | 49.00113 | 2.56574 | 360 ft | 2 kts | 260° |
| 2026-05-08 19:56 | 49.00109 | 2.56533 | 357 ft | 6 kts | 263° |
| 2026-05-08 19:56 | 49.00103 | 2.56447 | 354 ft | 10 kts | 264° |
| 2026-05-08 19:57 | 49.00097 | 2.56320 | 355 ft | 14 kts | 266° |
| 2026-05-08 19:57 | 49.00091 | 2.56190 | 359 ft | 13 kts | 265° |
| 2026-05-08 19:57 | 49.00083 | 2.56059 | 354 ft | 12 kts | 265° |
| 2026-05-08 19:57 | 49.00077 | 2.55937 | 354 ft | 11 kts | 266° |
| 2026-05-08 19:58 | 49.00073 | 2.55814 | 354 ft | 12 kts | 270° |
| 2026-05-08 19:58 | 49.00073 | 2.55789 | 354 ft | 0 kts | 270° |
| 2026-05-08 20:00 | 49.00073 | 2.55788 | 354 ft | 1 kts | 270° |
| 2026-05-08 20:00 | 49.00073 | 2.55756 | 358 ft | 5 kts | 270° |
| 2026-05-08 20:00 | 49.00077 | 2.55679 | 360 ft | 9 kts | 284° |
| 2026-05-08 20:01 | 49.00128 | 2.55610 | 356 ft | 11 kts | 341° |
| 2026-05-08 20:01 | 49.00214 | 2.55572 | 356 ft | 14 kts | 345° |
| 2026-05-08 20:01 | 49.00317 | 2.55529 | 355 ft | 16 kts | 344° |
| 2026-05-08 20:01 | 49.00430 | 2.55480 | 358 ft | 16 kts | 344° |
| 2026-05-08 20:02 | 49.00494 | 2.55452 | 357 ft | 0 kts | 344° |
| 2026-05-08 20:02 | 49.00508 | 2.55446 | 356 ft | 4 kts | 344° |
| 2026-05-08 20:02 | 49.00549 | 2.55428 | 355 ft | 8 kts | 344° |
| 2026-05-08 20:03 | 49.00614 | 2.55400 | 359 ft | 11 kts | 344° |
| 2026-05-08 20:03 | 49.00700 | 2.55362 | 359 ft | 14 kts | 343° |
| 2026-05-08 20:03 | 49.00806 | 2.55315 | 357 ft | 17 kts | 344° |
| 2026-05-08 20:03 | 49.00926 | 2.55263 | 360 ft | 16 kts | 344° |
| 2026-05-08 20:04 | 49.01026 | 2.55220 | 354 ft | 15 kts | 344° |
| 2026-05-08 20:04 | 49.01130 | 2.55174 | 354 ft | 16 kts | 343° |
| 2026-05-08 20:04 | 49.01218 | 2.55173 | 358 ft | 14 kts | 17° |
| 2026-05-08 20:04 | 49.01318 | 2.55220 | 357 ft | 16 kts | 10° |
| 2026-05-08 20:05 | 49.01434 | 2.55186 | 354 ft | 18 kts | 349° |
| 2026-05-08 20:05 | 49.01564 | 2.55162 | 357 ft | 20 kts | 355° |
| 2026-05-08 20:05 | 49.01680 | 2.55149 | 359 ft | 15 kts | 354° |
| 2026-05-08 20:05 | 49.01784 | 2.55135 | 361 ft | 13 kts | 356° |
| 2026-05-08 20:06 | 49.01856 | 2.55077 | 356 ft | 12 kts | 290° |
| 2026-05-08 20:06 | 49.01853 | 2.54929 | 354 ft | 16 kts | 264° |
| 2026-05-08 20:06 | 49.01843 | 2.54746 | 361 ft | 19 kts | 266° |
| 2026-05-08 20:06 | 49.01831 | 2.54534 | 354 ft | 19 kts | 265° |
| 2026-05-08 20:07 | 49.01820 | 2.54315 | 357 ft | 19 kts | 266° |
| 2026-05-08 20:07 | 49.01810 | 2.54132 | 354 ft | 19 kts | 265° |
| 2026-05-08 20:07 | 49.01800 | 2.53931 | 357 ft | 19 kts | 266° |
| 2026-05-08 20:07 | 49.01788 | 2.53712 | 361 ft | 22 kts | 265° |
| 2026-05-08 20:08 | 49.01778 | 2.53551 | 356 ft | 24 kts | 265° |
| 2026-05-08 20:08 | 49.01765 | 2.53316 | 354 ft | 21 kts | 265° |
| 2026-05-08 20:08 | 49.01749 | 2.53009 | 354 ft | 22 kts | 265° |
| 2026-05-08 20:08 | 49.01742 | 2.52820 | 360 ft | 14 kts | 277° |
| 2026-05-08 20:09 | 49.01788 | 2.52760 | 361 ft | 0 kts | 341° |
| 2026-05-08 20:09 | 49.01798 | 2.52757 | 358 ft | 3 kts | 351° |
| 2026-05-08 20:09 | 49.01801 | 2.52757 | 357 ft | 0 kts | 353° |
| 2026-05-08 20:10 | 49.01805 | 2.52756 | 357 ft | 2 kts | 353° |
| 2026-05-08 20:10 | 49.01832 | 2.52751 | 356 ft | 6 kts | 353° |
| 2026-05-08 20:10 | 49.01886 | 2.52743 | 357 ft | 9 kts | 356° |
| 2026-05-08 20:10 | 49.01962 | 2.52736 | 359 ft | 12 kts | 356° |
| 2026-05-08 20:11 | 49.02056 | 2.52725 | 355 ft | 15 kts | 353° |
| 2026-05-08 20:11 | 49.02134 | 2.52761 | 362 ft | 12 kts | 71° |
| 2026-05-08 20:11 | 49.02142 | 2.52809 | 355 ft | 0 kts | 81° |
| 2026-05-08 20:11 | 49.02159 | 2.53130 | 355 ft | 66 kts | 85° |
| 2026-05-08 20:12 | 49.02214 | 2.54151 | 356 ft | 124 kts | 85° |
| 2026-05-08 20:12 | 49.02286 | 2.55652 | 513 ft | 151 kts | 85° |
| 2026-05-08 20:12 | 49.02339 | 2.57202 | 1187 ft | 146 kts | 86° |
| 2026-05-08 20:12 | 49.02390 | 2.58739 | 1827 ft | 145 kts | 85° |
| 2026-05-08 20:13 | 49.02485 | 2.60320 | 2354 ft | 159 kts | 84° |
| 2026-05-08 20:13 | 49.02610 | 2.62101 | 2842 ft | 179 kts | 84° |
| 2026-05-08 20:13 | 49.02739 | 2.64116 | 3355 ft | 204 kts | 85° |
| 2026-05-08 20:13 | 49.02871 | 2.66394 | 4005 ft | 226 kts | 85° |
| 2026-05-08 20:14 | 49.03000 | 2.68775 | 5153 ft | 222 kts | 86° |
| 2026-05-08 20:14 | 49.03126 | 2.71146 | 6162 ft | 231 kts | 86° |
| 2026-05-08 20:14 | 49.03395 | 2.73675 | 6765 ft | 255 kts | 69° |
| 2026-05-08 20:14 | 49.04439 | 2.75972 | 7323 ft | 278 kts | 40° |
| 2026-05-08 20:15 | 49.06166 | 2.77347 | 8174 ft | 285 kts | 12° |
| 2026-05-08 20:15 | 49.08140 | 2.77404 | 9182 ft | 287 kts | 346° |
| 2026-05-08 20:15 | 49.09935 | 2.76237 | 9746 ft | 285 kts | 322° |
| 2026-05-08 20:15 | 49.11439 | 2.74264 | 9982 ft | 285 kts | 314° |
| 2026-05-08 20:16 | 49.12917 | 2.72244 | 10069 ft | 286 kts | 317° |
| 2026-05-08 20:16 | 49.14504 | 2.70405 | 10073 ft | 287 kts | 323° |
| 2026-05-08 20:16 | 49.16226 | 2.68711 | 10077 ft | 306 kts | 326° |
| 2026-05-08 20:16 | 49.18089 | 2.67059 | 10077 ft | 321 kts | 328° |
| 2026-05-08 20:17 | 49.20101 | 2.65356 | 10077 ft | 334 kts | 330° |
| 2026-05-08 20:17 | 49.22127 | 2.63662 | 10070 ft | 330 kts | 328° |
| 2026-05-08 20:17 | 49.24035 | 2.61708 | 10079 ft | 331 kts | 323° |
| 2026-05-08 20:17 | 49.25921 | 2.59645 | 10376 ft | 335 kts | 323° |
| 2026-05-08 20:18 | 49.27800 | 2.57597 | 11304 ft | 336 kts | 323° |
| 2026-05-08 20:18 | 49.29721 | 2.55500 | 12213 ft | 342 kts | 323° |
| 2026-05-08 20:18 | 49.31672 | 2.53366 | 13094 ft | 347 kts | 323° |
| 2026-05-08 20:18 | 49.33613 | 2.51242 | 13952 ft | 353 kts | 323° |
| 2026-05-08 20:19 | 49.35620 | 2.49041 | 14740 ft | 357 kts | 323° |
| 2026-05-08 20:19 | 49.37649 | 2.46812 | 15543 ft | 361 kts | 323° |
| 2026-05-08 20:19 | 49.39708 | 2.44548 | 16326 ft | 366 kts | 323° |
| 2026-05-08 20:19 | 49.41785 | 2.42261 | 17107 ft | 370 kts | 323° |
| 2026-05-08 20:20 | 49.43890 | 2.39942 | 17862 ft | 375 kts | 323° |
| 2026-05-08 20:20 | 49.46026 | 2.37587 | 18561 ft | 380 kts | 323° |
| 2026-05-08 20:20 | 49.48163 | 2.35225 | 19359 ft | 379 kts | 323° |
| 2026-05-08 20:20 | 49.50307 | 2.32854 | 20126 ft | 380 kts | 324° |
| 2026-05-08 20:21 | 49.52465 | 2.30463 | 20750 ft | 384 kts | 324° |
| 2026-05-08 20:21 | 49.54610 | 2.28087 | 21494 ft | 385 kts | 324° |
| 2026-05-08 20:21 | 49.56784 | 2.25676 | 22245 ft | 386 kts | 324° |
| 2026-05-08 20:21 | 49.58972 | 2.23247 | 22893 ft | 390 kts | 324° |
| 2026-05-08 20:22 | 49.61195 | 2.20776 | 23439 ft | 396 kts | 324° |
| 2026-05-08 20:22 | 49.63430 | 2.18287 | 23874 ft | 397 kts | 324° |
| 2026-05-08 20:22 | 49.65673 | 2.15786 | 24030 ft | 398 kts | 324° |
| 2026-05-08 20:22 | 49.67915 | 2.13284 | 24071 ft | 398 kts | 324° |
| 2026-05-08 20:23 | 49.70143 | 2.10794 | 24073 ft | 398 kts | 324° |
| 2026-05-08 20:23 | 49.72387 | 2.08284 | 24075 ft | 398 kts | 324° |
| 2026-05-08 20:23 | 49.74623 | 2.05780 | 24076 ft | 397 kts | 324° |
| 2026-05-08 20:23 | 49.76833 | 2.03303 | 24077 ft | 397 kts | 324° |
| 2026-05-08 20:24 | 49.79070 | 2.00793 | 24078 ft | 397 kts | 324° |
| 2026-05-08 20:24 | 49.81307 | 1.98279 | 24086 ft | 398 kts | 324° |
| 2026-05-08 20:24 | 49.83543 | 1.95763 | 24083 ft | 398 kts | 324° |
| 2026-05-08 20:24 | 49.85780 | 1.93244 | 24079 ft | 398 kts | 324° |
| 2026-05-08 20:25 | 49.88015 | 1.90724 | 24079 ft | 397 kts | 324° |
| 2026-05-08 20:25 | 49.90248 | 1.88204 | 24090 ft | 397 kts | 324° |
| 2026-05-08 20:25 | 49.92452 | 1.85602 | 24081 ft | 397 kts | 322° |
| 2026-05-08 20:25 | 49.94609 | 1.82924 | 24082 ft | 397 kts | 321° |
| 2026-05-08 20:26 | 49.96763 | 1.80226 | 24086 ft | 400 kts | 321° |
| 2026-05-08 20:26 | 49.98914 | 1.77539 | 24092 ft | 402 kts | 321° |
| 2026-05-08 20:26 | 50.01094 | 1.74829 | 24085 ft | 401 kts | 321° |
| 2026-05-08 20:26 | 50.03255 | 1.72150 | 24088 ft | 401 kts | 321° |
| 2026-05-08 20:27 | 50.05441 | 1.69455 | 24082 ft | 401 kts | 323° |
| 2026-05-08 20:27 | 50.07767 | 1.67056 | 24084 ft | 401 kts | 330° |
| 2026-05-08 20:27 | 50.10266 | 1.65111 | 24088 ft | 401 kts | 335° |
| 2026-05-08 20:27 | 50.12802 | 1.63296 | 24087 ft | 401 kts | 334° |
| 2026-05-08 20:28 | 50.15333 | 1.61459 | 24089 ft | 401 kts | 334° |
| 2026-05-08 20:28 | 50.17863 | 1.59615 | 24089 ft | 401 kts | 334° |
| 2026-05-08 20:28 | 50.20400 | 1.57766 | 24091 ft | 402 kts | 334° |
| 2026-05-08 20:28 | 50.22931 | 1.55922 | 24092 ft | 402 kts | 334° |
| 2026-05-08 20:29 | 50.25432 | 1.54099 | 24090 ft | 402 kts | 334° |
| 2026-05-08 20:29 | 50.27966 | 1.52251 | 24093 ft | 402 kts | 334° |
| 2026-05-08 20:29 | 50.30502 | 1.50400 | 24096 ft | 402 kts | 334° |
| 2026-05-08 20:29 | 50.33037 | 1.48547 | 24098 ft | 402 kts | 334° |
| 2026-05-08 20:30 | 50.35566 | 1.46697 | 24097 ft | 402 kts | 334° |
| 2026-05-08 20:30 | 50.38100 | 1.44840 | 24098 ft | 402 kts | 334° |
| 2026-05-08 20:30 | 50.40636 | 1.42980 | 24100 ft | 402 kts | 334° |
| 2026-05-08 20:30 | 50.43169 | 1.41121 | 24103 ft | 402 kts | 334° |
| 2026-05-08 20:31 | 50.45702 | 1.39258 | 24104 ft | 402 kts | 334° |
| 2026-05-08 20:31 | 50.48115 | 1.37141 | 24102 ft | 404 kts | 326° |
| 2026-05-08 20:31 | 50.50350 | 1.34494 | 24102 ft | 403 kts | 318° |
| 2026-05-08 20:31 | 50.52346 | 1.31402 | 24106 ft | 404 kts | 312° |
| 2026-05-08 20:32 | 50.54248 | 1.28148 | 24096 ft | 405 kts | 312° |
| 2026-05-08 20:32 | 50.56166 | 1.24899 | 24097 ft | 404 kts | 312° |
| 2026-05-08 20:32 | 50.58067 | 1.21685 | 24107 ft | 399 kts | 313° |
| 2026-05-08 20:32 | 50.60005 | 1.18559 | 24105 ft | 401 kts | 314° |
| 2026-05-08 20:33 | 50.62001 | 1.15450 | 24109 ft | 404 kts | 315° |
| 2026-05-08 20:33 | 50.63996 | 1.12352 | 24105 ft | 401 kts | 315° |
| 2026-05-08 20:33 | 50.65964 | 1.09277 | 23854 ft | 397 kts | 314° |
| 2026-05-08 20:33 | 50.67912 | 1.06211 | 23262 ft | 396 kts | 314° |
| 2026-05-08 20:34 | 50.69860 | 1.03131 | 22510 ft | 396 kts | 314° |
| 2026-05-08 20:34 | 50.71774 | 1.00093 | 21779 ft | 395 kts | 314° |
| 2026-05-08 20:34 | 50.75628 | 0.93966 | 20473 ft | 392 kts | 314° |
| 2026-05-08 20:35 | 50.77539 | 0.90922 | 19849 ft | 389 kts | 313° |
| 2026-05-08 20:35 | 50.79439 | 0.87891 | 19298 ft | 386 kts | 313° |
| 2026-05-08 20:35 | 50.81321 | 0.84884 | 18876 ft | 385 kts | 313° |
| 2026-05-08 20:35 | 50.83207 | 0.81867 | 18509 ft | 385 kts | 313° |
| 2026-05-08 20:36 | 50.85089 | 0.78853 | 18086 ft | 384 kts | 313° |
| 2026-05-08 20:36 | 50.86929 | 0.75903 | 17665 ft | 379 kts | 313° |
| 2026-05-08 20:36 | 50.88773 | 0.72944 | 17233 ft | 376 kts | 313° |
| 2026-05-08 20:36 | 50.90603 | 0.70003 | 16825 ft | 374 kts | 313° |
| 2026-05-08 20:37 | 50.92421 | 0.67077 | 16417 ft | 371 kts | 313° |
| 2026-05-08 20:37 | 50.94226 | 0.64169 | 16015 ft | 369 kts | 313° |
| 2026-05-08 20:37 | 50.96016 | 0.61281 | 15618 ft | 366 kts | 313° |
| 2026-05-08 20:37 | 50.97791 | 0.58414 | 15227 ft | 363 kts | 313° |
| 2026-05-08 20:38 | 50.99547 | 0.55575 | 14841 ft | 361 kts | 313° |
| 2026-05-08 20:38 | 51.01296 | 0.52744 | 14459 ft | 358 kts | 313° |
| 2026-05-08 20:38 | 51.03035 | 0.49927 | 14082 ft | 356 kts | 313° |
| 2026-05-08 20:38 | 51.04762 | 0.47124 | 13675 ft | 353 kts | 313° |
| 2026-05-08 20:39 | 51.06446 | 0.44392 | 13257 ft | 348 kts | 313° |
| 2026-05-08 20:39 | 51.08147 | 0.41678 | 12836 ft | 347 kts | 314° |
| 2026-05-08 20:39 | 51.09886 | 0.39030 | 12431 ft | 344 kts | 315° |
| 2026-05-08 20:39 | 51.11607 | 0.36441 | 12008 ft | 338 kts | 315° |
| 2026-05-08 20:40 | 51.13301 | 0.33886 | 11598 ft | 332 kts | 315° |
| 2026-05-08 20:40 | 51.14958 | 0.31372 | 11198 ft | 326 kts | 315° |
| 2026-05-08 20:40 | 51.16576 | 0.28904 | 10802 ft | 321 kts | 315° |
| 2026-05-08 20:40 | 51.18174 | 0.26460 | 10401 ft | 316 kts | 315° |
| 2026-05-08 20:41 | 51.19744 | 0.24053 | 10014 ft | 311 kts | 314° |
| 2026-05-08 20:41 | 51.21294 | 0.21673 | 9577 ft | 307 kts | 315° |
| 2026-05-08 20:41 | 51.22822 | 0.19323 | 9157 ft | 303 kts | 315° |
| 2026-05-08 20:41 | 51.24310 | 0.17033 | 8728 ft | 300 kts | 315° |
| 2026-05-08 20:42 | 51.25799 | 0.14738 | 8344 ft | 295 kts | 315° |
| 2026-05-08 20:42 | 51.27242 | 0.12515 | 8223 ft | 281 kts | 315° |
| 2026-05-08 20:42 | 51.28620 | 0.10394 | 8112 ft | 269 kts | 315° |
| 2026-05-08 20:42 | 51.29935 | 0.08366 | 7963 ft | 257 kts | 315° |
| 2026-05-08 20:43 | 51.31228 | 0.06364 | 7449 ft | 263 kts | 315° |
| 2026-05-08 20:43 | 51.32506 | 0.04251 | 6829 ft | 271 kts | 305° |
| 2026-05-08 20:43 | 51.33219 | 0.01452 | 6348 ft | 273 kts | 277° |
| 2026-05-08 20:43 | 51.33376 | -0.01576 | 6163 ft | 276 kts | 274° |
| 2026-05-08 20:44 | 51.33531 | -0.04612 | 6041 ft | 274 kts | 274° |
| 2026-05-08 20:44 | 51.33693 | -0.07637 | 6011 ft | 274 kts | 274° |
| 2026-05-08 20:44 | 51.33860 | -0.10675 | 6009 ft | 275 kts | 274° |
| 2026-05-08 20:44 | 51.34025 | -0.13674 | 6009 ft | 275 kts | 274° |
| 2026-05-08 20:45 | 51.34193 | -0.16727 | 6013 ft | 275 kts | 274° |
| 2026-05-08 20:45 | 51.34359 | -0.19776 | 6014 ft | 275 kts | 274° |
| 2026-05-08 20:45 | 51.34531 | -0.22993 | 6020 ft | 312 kts | 274° |
| 2026-05-08 20:45 | 51.34720 | -0.26553 | 6003 ft | 334 kts | 274° |
| 2026-05-08 20:46 | 51.34918 | -0.30266 | 5981 ft | 334 kts | 274° |
| 2026-05-08 20:46 | 51.35113 | -0.33935 | 5847 ft | 327 kts | 274° |
| 2026-05-08 20:46 | 51.35304 | -0.37543 | 5365 ft | 326 kts | 274° |
| 2026-05-08 20:46 | 51.35491 | -0.41100 | 4808 ft | 324 kts | 274° |
| 2026-05-08 20:47 | 51.35677 | -0.44675 | 4277 ft | 321 kts | 274° |
| 2026-05-08 20:47 | 51.35861 | -0.48233 | 4077 ft | 324 kts | 274° |
| 2026-05-08 20:47 | 51.36044 | -0.51813 | 4025 ft | 322 kts | 274° |
| 2026-05-08 20:47 | 51.36327 | -0.55359 | 4021 ft | 321 kts | 285° |
| 2026-05-08 20:48 | 51.37289 | -0.58457 | 4024 ft | 303 kts | 304° |
| 2026-05-08 20:48 | 51.38382 | -0.61210 | 4021 ft | 284 kts | 300° |
| 2026-05-08 20:48 | 51.39313 | -0.63895 | 3943 ft | 270 kts | 298° |
| 2026-05-08 20:48 | 51.40215 | -0.66512 | 3622 ft | 267 kts | 298° |
| 2026-05-08 20:49 | 51.41177 | -0.69088 | 3408 ft | 271 kts | 307° |
| 2026-05-08 20:49 | 51.42406 | -0.71346 | 3168 ft | 267 kts | 313° |
| 2026-05-08 20:49 | 51.43126 | -0.72594 | 3036 ft | 269 kts | 316° |
| 2026-05-08 20:49 | 51.44541 | -0.74059 | 2823 ft | 263 kts | 343° |
| 2026-05-08 20:50 | 51.46275 | -0.74137 | 2700 ft | 245 kts | 20° |
| 2026-05-08 20:50 | 51.47547 | -0.72666 | 2573 ft | 214 kts | 60° |
| 2026-05-08 20:50 | 51.47863 | -0.70413 | 2497 ft | 213 kts | 94° |
| 2026-05-08 20:50 | 51.47740 | -0.68074 | 2397 ft | 208 kts | 96° |
| 2026-05-08 20:51 | 51.47655 | -0.65751 | 2198 ft | 207 kts | 93° |
| 2026-05-08 20:51 | 51.47636 | -0.63532 | 1943 ft | 191 kts | 91° |
| 2026-05-08 20:51 | 51.47648 | -0.61494 | 1738 ft | 173 kts | 91° |
| 2026-05-08 20:51 | 51.47659 | -0.59572 | 1487 ft | 167 kts | 91° |
| 2026-05-08 20:52 | 51.47671 | -0.57796 | 1264 ft | 152 kts | 90° |
| 2026-05-08 20:52 | 51.47682 | -0.56182 | 1079 ft | 137 kts | 90° |
| 2026-05-08 20:52 | 51.47692 | -0.54752 | 893 ft | 124 kts | 90° |
| 2026-05-08 20:52 | 51.47699 | -0.53388 | 753 ft | 124 kts | 90° |
| 2026-05-08 20:53 | 51.47703 | -0.52018 | 614 ft | 123 kts | 90° |
| 2026-05-08 20:53 | 51.47702 | -0.50654 | 410 ft | 119 kts | 90° |
| 2026-05-08 20:53 | 51.47739 | -0.49307 | 233 ft | 120 kts | 88° |
| 2026-05-08 20:53 | 51.47760 | -0.47969 | 106 ft | 120 kts | 90° |
| 2026-05-08 20:54 | 51.47761 | -0.46821 | 88 ft | 76 kts | 91° |
| 2026-05-08 20:54 | 51.47759 | -0.46201 | 89 ft | 44 kts | 91° |
| 2026-05-08 20:54 | 51.47759 | -0.45734 | 87 ft | 36 kts | 89° |
| 2026-05-08 20:54 | 51.47705 | -0.45476 | 87 ft | 23 kts | 163° |
| 2026-05-08 20:55 | 51.47603 | -0.45503 | 86 ft | 6 kts | 231° |
| 2026-05-08 20:55 | 51.47596 | -0.45587 | 87 ft | 10 kts | 270° |
| 2026-05-08 20:55 | 51.47597 | -0.45723 | 86 ft | 14 kts | 270° |
| 2026-05-08 20:55 | 51.47596 | -0.45907 | 89 ft | 18 kts | 269° |
| 2026-05-08 20:56 | 51.47594 | -0.46132 | 89 ft | 22 kts | 270° |
| 2026-05-08 20:56 | 51.47594 | -0.46395 | 87 ft | 25 kts | 270° |
| 2026-05-08 20:56 | 51.47592 | -0.46648 | 86 ft | 21 kts | 270° |
| 2026-05-08 20:56 | 51.47588 | -0.46841 | 87 ft | 19 kts | 260° |
| 2026-05-08 20:57 | 51.47582 | -0.47069 | 88 ft | 19 kts | 269° |
| 2026-05-08 20:57 | 51.47581 | -0.47272 | 90 ft | 20 kts | 269° |
| 2026-05-08 20:57 | 51.47581 | -0.47520 | 89 ft | 24 kts | 269° |
| 2026-05-08 20:57 | 51.47580 | -0.47757 | 88 ft | 18 kts | 270° |
| 2026-05-08 20:58 | 51.47580 | -0.47977 | 90 ft | 21 kts | 270° |
| 2026-05-08 20:58 | 51.47579 | -0.48214 | 92 ft | 21 kts | 269° |
| 2026-05-08 20:58 | 51.47578 | -0.48374 | 92 ft | 11 kts | 270° |
| 2026-05-08 20:58 | 51.47545 | -0.48472 | 89 ft | 12 kts | 195° |
| 2026-05-08 20:59 | 51.47445 | -0.48474 | 88 ft | 17 kts | 178° |
| 2026-05-08 20:59 | 51.47381 | -0.48474 | 87 ft | 5 kts | 184° |
| 2026-05-08 20:59 | 51.47362 | -0.48522 | 87 ft | 3 kts | 261° |
| 2026-05-08 20:59 | 51.47361 | -0.48567 | 87 ft | 5 kts | 268° |
| 2026-05-08 21:00 | 51.47360 | -0.48587 | 87 ft | 0 kts | 269° |